Time;durP1;ratioP1;P1;durP2;ratioP2;P2;SDS_P1;SDS_P2;PMS_P1;PMS_P2;Temp;Humidity;BMP_temperature;BMP_pressure;BME280_temperature;BME280_humidity;BME280_pressure;Samples;Min_cycle;Max_cycle;Signal;HPM_P1;HPM_P2
2021/07/03 00:01:31;;;;;;;44.08;22.88;;;;;;;13.46;100.00;101449.66;6247440;28;20460;-76
2021/07/03 00:04:32;;;;;;;35.80;21.90;;;;;;;13.43;100.00;101455.94;6247272;28;20052;-76
2021/07/03 00:07:34;;;;;;;36.63;23.23;;;;;;;13.44;100.00;101457.66;6247199;28;20053;-76
2021/07/03 00:10:35;;;;;;;38.45;23.63;;;;;;;13.44;100.00;101448.88;6246946;28;20408;-76
2021/07/03 00:13:38;;;;;;;36.33;22.33;;;;;;;13.38;100.00;101443.94;6247533;28;20515;-76
2021/07/03 00:16:40;;;;;;;38.00;22.38;;;;;;;13.37;100.00;101447.50;6247111;28;20420;-77
2021/07/03 00:19:42;;;;;;;33.50;21.70;;;;;;;13.35;100.00;101446.72;6247169;28;20050;-76
2021/07/03 00:22:43;;;;;;;38.60;24.23;;;;;;;13.33;100.00;101443.31;6247010;28;20060;-76
2021/07/03 00:25:45;;;;;;;35.92;23.27;;;;;;;13.32;100.00;101453.03;6247025;28;20045;-76
2021/07/03 00:28:47;;;;;;;34.00;22.50;;;;;;;13.38;100.00;101451.84;6246634;28;20489;-76
2021/07/03 00:31:49;;;;;;;39.13;23.02;;;;;;;13.37;100.00;101453.63;6247010;28;20049;-76
2021/07/03 00:34:50;;;;;;;32.60;21.67;;;;;;;13.34;100.00;101452.94;6246943;28;20422;-76
2021/07/03 00:37:51;;;;;;;36.08;23.13;;;;;;;13.32;100.00;101449.53;6246391;28;20136;-76
2021/07/03 00:40:53;;;;;;;33.60;22.15;;;;;;;13.29;100.00;101445.25;6246782;28;20525;-76
2021/07/03 00:43:56;;;;;;;33.78;22.13;;;;;;;13.24;100.00;101443.81;6246666;28;20049;-77
2021/07/03 00:46:59;;;;;;;35.13;22.20;;;;;;;13.23;100.00;101445.59;6245768;28;20136;-76
2021/07/03 00:50:02;;;;;;;27.85;19.55;;;;;;;13.24;100.00;101454.38;6246331;28;20053;-76
2021/07/03 00:53:04;;;;;;;30.02;20.00;;;;;;;13.08;100.00;101455.16;6246693;28;20057;-76
2021/07/03 00:56:05;;;;;;;33.45;21.60;;;;;;;13.03;100.00;101448.41;6246242;28;20523;-76
2021/07/03 00:59:08;;;;;;;33.22;20.55;;;;;;;13.09;100.00;101448.94;6246559;28;20049;-74
2021/07/03 01:02:11;;;;;;;32.58;21.05;;;;;;;13.08;100.00;101444.59;6246417;28;20045;-76
2021/07/03 01:05:13;;;;;;;40.00;21.30;;;;;;;13.03;100.00;101449.25;6246626;28;20049;-76
2021/07/03 01:08:15;;;;;;;43.13;20.63;;;;;;;13.03;100.00;101441.31;6246173;28;20052;-76
2021/07/03 01:11:24;;;;;;;31.23;19.30;;;;;;;12.97;100.00;101439.03;6246275;28;20404;-76
2021/07/03 01:14:27;;;;;;;32.47;20.33;;;;;;;12.95;100.00;101435.63;6246585;28;20049;-76
2021/07/03 01:17:28;;;;;;;31.45;20.50;;;;;;;12.96;100.00;101434.69;6245907;28;20054;-77
2021/07/03 01:20:30;;;;;;;37.22;20.10;;;;;;;12.90;100.00;101437.66;6246331;28;20068;-76
2021/07/03 01:23:32;;;;;;;31.42;21.10;;;;;;;12.89;100.00;101436.78;6246230;28;20049;-76
2021/07/03 01:26:41;;;;;;;39.58;21.90;;;;;;;12.87;100.00;101433.38;6246263;28;20054;-76
2021/07/03 01:29:44;;;;;;;37.88;21.63;;;;;;;12.84;100.00;101430.88;6245822;28;20527;-76
2021/07/03 01:32:45;;;;;;;31.00;21.35;;;;;;;12.83;100.00;101431.81;6246365;28;20061;-78
2021/07/03 01:35:46;;;;;;;30.13;20.65;;;;;;;12.79;100.00;101427.63;6245978;28;20481;-76
2021/07/03 01:38:49;;;;;;;32.47;20.60;;;;;;;12.76;100.00;101432.22;6246025;28;20061;-76
2021/07/03 01:41:51;;;;;;;34.90;21.15;;;;;;;12.75;100.00;101431.38;6246148;28;20053;-76
2021/07/03 01:44:53;;;;;;;35.17;22.40;;;;;;;12.72;100.00;101428.03;6246234;28;20527;-76
2021/07/03 01:47:55;;;;;;;33.38;21.55;;;;;;;12.72;100.00;101434.19;6245892;28;20049;-76
2021/07/03 01:50:57;;;;;;;29.58;20.52;;;;;;;12.69;100.00;101431.69;6245677;28;20049;-76
2021/07/03 01:54:01;;;;;;;33.30;21.85;;;;;;;12.73;100.00;101427.13;6246095;28;20064;-76
2021/07/03 01:57:02;;;;;;;34.72;22.17;;;;;;;12.72;100.00;101423.63;6245621;28;20050;-77
2021/07/03 02:00:06;;;;;;;31.73;21.17;;;;;;;12.67;100.00;101428.25;6249364;28;20048;-76
2021/07/03 02:03:08;;;;;;;28.83;20.30;;;;;;;12.63;100.00;101424.94;6250235;28;20517;-76
2021/07/03 02:06:09;;;;;;;31.38;21.48;;;;;;;12.68;100.00;101430.00;6250217;28;20049;-76
2021/07/03 02:09:12;;;;;;;30.70;22.65;;;;;;;12.64;100.00;101431.91;6249846;28;20053;-77
2021/07/03 02:12:13;;;;;;;30.00;22.02;;;;;;;12.64;100.00;101433.72;6249575;28;20412;-76
2021/07/03 02:15:15;;;;;;;30.33;21.40;;;;;;;12.61;100.00;101439.13;6249993;28;20050;-77
2021/07/03 02:18:16;;;;;;;36.97;21.98;;;;;;;12.56;100.00;101434.09;6249645;28;20057;-76
2021/07/03 02:21:18;;;;;;;32.08;22.00;;;;;;;12.55;100.00;101448.22;6249866;28;20050;-74
2021/07/03 02:24:20;;;;;;;35.65;21.88;;;;;;;12.55;100.00;101440.31;6250037;28;20050;-76
2021/07/03 02:27:22;;;;;;;38.47;22.30;;;;;;;12.54;100.00;101432.47;6249703;28;20052;-77
2021/07/03 02:30:24;;;;;;;31.75;22.27;;;;;;;12.53;100.00;101433.38;6249284;28;20053;-76
2021/07/03 02:33:26;;;;;;;31.08;21.58;;;;;;;12.50;100.00;101438.84;6249612;28;20053;-76
2021/07/03 02:36:27;;;;;;;31.63;21.65;;;;;;;12.44;100.00;101446.13;6250109;28;20053;-77
2021/07/03 02:39:30;;;;;;;33.90;22.00;;;;;;;12.44;100.00;101429.41;6260177;28;20053;-76
2021/07/03 02:42:31;;;;;;;28.17;18.85;;;;;;;12.41;100.00;101434.88;6274105;28;20060;-76
2021/07/03 02:45:33;;;;;;;33.33;21.67;;;;;;;12.32;100.00;101427.41;6274155;28;20045;-77
2021/07/03 02:48:34;;;;;;;37.22;22.42;;;;;;;12.30;100.00;101438.03;6273524;28;20052;-76
2021/07/03 02:51:35;;;;;;;32.17;22.02;;;;;;;12.32;100.00;101441.44;6273996;28;20072;-76
2021/07/03 02:54:38;;;;;;;39.92;24.02;;;;;;;12.33;100.00;101439.66;6273768;28;20485;-76
2021/07/03 02:57:40;;;;;;;38.10;24.13;;;;;;;12.34;100.00;101444.84;6265985;28;20528;-76
2021/07/03 03:00:41;;;;;;;38.95;23.38;;;;;;;12.33;100.00;101447.56;6265250;28;20049;-76
2021/07/03 03:03:43;;;;;;;38.63;25.83;;;;;;;12.30;100.00;101451.19;6273497;28;20044;-77
2021/07/03 03:06:44;;;;;;;33.50;23.17;;;;;;;12.28;100.00;101441.69;6273471;28;20069;-77
2021/07/03 03:09:47;;;;;;;41.70;25.20;;;;;;;12.26;100.00;101444.38;6272120;28;20056;-76
2021/07/03 03:12:49;;;;;;;34.05;22.20;;;;;;;12.25;100.00;101447.09;6273650;28;20056;-76
2021/07/03 03:15:50;;;;;;;37.00;21.92;;;;;;;12.23;100.00;101455.06;6273167;28;20060;-77
2021/07/03 03:18:51;;;;;;;31.73;22.70;;;;;;;12.23;100.00;101454.22;6273210;28;20060;-77
2021/07/03 03:21:53;;;;;;;35.28;23.13;;;;;;;12.21;100.00;101451.66;6273071;28;20061;-76
2021/07/03 03:24:55;;;;;;;30.33;22.00;;;;;;;12.18;100.00;101454.44;6273270;28;20049;-76
2021/07/03 03:27:57;;;;;;;36.17;22.10;;;;;;;12.23;100.00;101455.06;6272756;28;20492;-77
2021/07/03 03:30:58;;;;;;;46.13;24.55;;;;;;;12.27;100.00;101450.53;6272703;28;20044;-76
2021/07/03 03:33:59;;;;;;;31.20;23.35;;;;;;;12.27;100.00;101456.63;6273020;28;20052;-76
2021/07/03 03:37:01;;;;;;;32.38;22.88;;;;;;;12.33;100.00;101456.31;6272618;28;20049;-76
2021/07/03 03:40:05;;;;;;;33.42;22.55;;;;;;;12.31;100.00;101460.84;6272596;28;20045;-77
2021/07/03 03:43:06;;;;;;;30.77;22.45;;;;;;;12.29;100.00;101456.56;6272600;28;20052;-76
2021/07/03 03:46:08;;;;;;;31.75;22.17;;;;;;;12.27;100.00;101456.63;6272645;28;20049;-76
2021/07/03 03:49:09;;;;;;;34.83;22.52;;;;;;;12.28;100.00;101460.97;6272154;28;20082;-77
2021/07/03 03:52:10;;;;;;;33.92;23.50;;;;;;;12.26;100.00;101456.69;6272543;28;20060;-76
2021/07/03 03:55:13;;;;;;;32.80;22.40;;;;;;;12.28;100.00;101462.75;6272337;28;20053;-76
2021/07/03 03:58:14;;;;;;;26.00;19.60;;;;;;;12.27;100.00;101464.53;6271794;28;20059;-76
2021/07/03 04:01:16;;;;;;;31.58;22.45;;;;;;;12.25;100.00;101466.38;6272260;28;20045;-76
2021/07/03 04:04:17;;;;;;;43.45;23.40;;;;;;;12.28;100.00;101460.13;6272055;28;20511;-76
2021/07/03 04:07:19;;;;;;;32.25;23.88;;;;;;;12.31;100.00;101467.84;6272153;28;20059;-76
2021/07/03 04:10:22;;;;;;;32.88;22.90;;;;;;;12.31;100.00;101471.38;6271677;28;20056;-76
2021/07/03 04:13:23;;;;;;;32.33;23.52;;;;;;;12.34;100.00;101473.00;6271938;28;20049;-76
2021/07/03 04:16:25;;;;;;;32.65;22.75;;;;;;;12.36;100.00;101477.28;6271655;28;20056;-76
2021/07/03 04:19:26;;;;;;;31.85;22.85;;;;;;;12.40;100.00;101481.47;6271722;28;20515;-77
2021/07/03 04:22:28;;;;;;;36.08;22.85;;;;;;;12.47;100.00;101476.72;6271679;28;20072;-76
2021/07/03 04:25:31;;;;;;;35.25;23.70;;;;;;;12.54;100.00;101478.16;6271931;28;20049;-77
2021/07/03 04:28:32;;;;;;;29.67;22.35;;;;;;;12.60;100.00;101477.84;6271430;28;20064;-77
2021/07/03 04:31:33;;;;;;;33.60;23.35;;;;;;;12.65;100.00;101477.59;6271639;28;20051;-77
2021/07/03 04:34:35;;;;;;;31.10;24.08;;;;;;;12.67;100.00;101481.00;6271632;28;20523;-76
2021/07/03 04:37:37;;;;;;;29.15;21.92;;;;;;;12.73;100.00;101479.84;6262152;28;20049;-76
2021/07/03 04:40:39;;;;;;;33.92;24.42;;;;;;;12.74;100.00;101485.06;6242220;28;20052;-76
2021/07/03 04:43:41;;;;;;;41.80;24.98;;;;;;;12.77;100.00;101470.88;6245239;28;20049;-76
2021/07/03 04:46:42;;;;;;;36.10;25.00;;;;;;;12.81;100.00;101470.63;6244911;28;20535;-76
2021/07/03 04:49:43;;;;;;;33.47;24.95;;;;;;;12.87;100.00;101464.19;6245493;28;20053;-76
2021/07/03 04:52:45;;;;;;;32.90;24.13;;;;;;;12.85;100.00;101466.03;6246674;28;20057;-76
2021/07/03 04:55:47;;;;;;;35.65;24.77;;;;;;;12.80;100.00;101465.41;6246262;28;20413;-76
2021/07/03 04:58:49;;;;;;;34.22;25.17;;;;;;;12.78;100.00;101465.50;6246586;28;20056;-76
2021/07/03 05:01:50;;;;;;;37.50;27.48;;;;;;;12.89;100.00;101457.88;6246454;28;20052;-76
2021/07/03 05:04:51;;;;;;;37.83;28.55;;;;;;;12.99;100.00;101460.91;6246649;28;20184;-76
2021/07/03 05:07:53;;;;;;;34.95;25.58;;;;;;;13.05;100.00;101457.09;6246296;28;20068;-76
2021/07/03 05:10:55;;;;;;;35.08;25.50;;;;;;;13.09;100.00;101448.09;6244760;28;20045;-76
2021/07/03 05:13:57;;;;;;;41.83;26.33;;;;;;;13.10;100.00;101447.16;6246201;28;20049;-76
2021/07/03 05:16:58;;;;;;;34.92;25.33;;;;;;;13.12;100.00;101446.13;6246146;28;20045;-76
2021/07/03 05:20:00;;;;;;;35.97;24.45;;;;;;;13.14;100.00;101457.47;6245200;28;20049;-76
2021/07/03 05:23:01;;;;;;;32.90;23.17;;;;;;;13.19;100.00;101452.78;6245464;28;20053;-77
2021/07/03 05:26:05;;;;;;;35.97;26.58;;;;;;;13.19;100.00;101452.78;6244644;28;20061;-77
2021/07/03 05:29:07;;;;;;;33.67;25.05;;;;;;;13.24;100.00;101452.59;6245848;28;20428;-76
2021/07/03 05:32:08;;;;;;;40.33;28.33;;;;;;;13.30;100.00;101454.03;6246299;28;20057;-76
2021/07/03 05:35:12;;;;;;;41.33;27.27;;;;;;;13.35;100.00;101457.28;6250258;28;20049;-76
2021/07/03 05:38:13;;;;;;;39.25;27.55;;;;;;;13.39;100.00;101456.19;6250785;28;20057;-76
2021/07/03 05:41:18;;;;;;;38.33;28.30;;;;;;;13.43;100.00;101457.72;6250148;28;20408;-76
2021/07/03 05:44:20;;;;;;;42.50;26.90;;;;;;;13.47;100.00;101456.63;6249910;28;20049;-76
2021/07/03 05:47:22;;;;;;;38.30;28.30;;;;;;;13.49;100.00;101448.63;6250198;28;20049;-76
2021/07/03 05:50:26;;;;;;;34.65;26.10;;;;;;;13.52;100.00;101451.94;6243216;28;20056;-76
2021/07/03 05:53:28;;;;;;;43.70;28.33;;;;;;;13.52;100.00;101448.47;6250631;28;20053;-77
2021/07/03 05:56:30;;;;;;;45.10;30.23;;;;;;;13.56;100.00;101447.34;6250197;28;20049;-76
2021/07/03 05:59:32;;;;;;;41.22;27.95;;;;;;;13.61;100.00;101448.81;6250204;28;20054;-75
2021/07/03 06:02:33;;;;;;;46.20;30.95;;;;;;;13.65;100.00;101454.78;6250197;28;20049;-76
2021/07/03 06:05:34;;;;;;;41.10;29.45;;;;;;;13.71;100.00;101449.16;6250389;28;20053;-76
2021/07/03 06:08:36;;;;;;;48.03;31.70;;;;;;;13.79;100.00;101444.28;6249829;28;20045;-76
2021/07/03 06:11:39;;;;;;;41.25;29.70;;;;;;;13.86;100.00;101443.03;6250136;28;20046;-76
2021/07/03 06:14:40;;;;;;;40.10;28.90;;;;;;;13.93;100.00;101446.16;6250032;28;20045;-75
2021/07/03 06:17:42;;;;;;;45.45;30.60;;;;;;;14.00;100.00;101449.34;6249977;28;20061;-76
2021/07/03 06:20:44;;;;;;;46.85;29.38;;;;;;;14.06;100.00;101441.06;6240039;28;20060;-76
2021/07/03 06:23:45;;;;;;;45.28;29.13;;;;;;;14.15;100.00;101443.16;6248892;28;20531;-76
2021/07/03 06:26:48;;;;;;;41.17;29.55;;;;;;;14.20;100.00;101438.47;6248681;28;20048;-75
2021/07/03 06:29:50;;;;;;;35.05;24.75;;;;;;;14.23;100.00;101438.31;6247813;28;20046;-77
2021/07/03 06:32:51;;;;;;;42.53;27.88;;;;;;;14.28;100.00;101444.16;6248100;28;20041;-76
2021/07/03 06:35:54;;;;;;;40.58;29.83;;;;;;;14.36;100.00;101430.50;6247979;28;20060;-76
2021/07/03 06:38:55;;;;;;;42.17;30.25;;;;;;;14.40;100.00;101434.69;6247973;28;20041;-76
2021/07/03 06:41:58;;;;;;;40.75;28.88;;;;;;;14.47;100.00;101431.56;6247911;28;20045;-76
2021/07/03 06:45:00;;;;;;;40.05;24.83;;;;;;;14.52;100.00;101431.34;6249333;28;20489;-76
2021/07/03 06:48:01;;;;;;;38.63;25.55;;;;;;;14.59;100.00;101429.19;6249051;28;20050;-76
2021/07/03 06:51:03;;;;;;;36.25;24.77;;;;;;;14.65;100.00;101437.59;6249045;28;20045;-76
2021/07/03 06:54:05;;;;;;;37.88;24.73;;;;;;;14.69;100.00;101433.84;6249159;28;20049;-76
2021/07/03 06:57:09;;;;;;;42.33;27.52;;;;;;;14.86;100.00;101437.28;6249080;28;20088;-76
2021/07/03 07:00:12;;;;;;;36.78;24.90;;;;;;;14.88;100.00;101443.31;6248814;28;20144;-76
2021/07/03 07:03:13;;;;;;;41.78;25.30;;;;;;;14.90;100.00;101444.94;6248925;28;20053;-75
2021/07/03 07:06:14;;;;;;;34.55;23.02;;;;;;;14.94;100.00;101435.88;6248705;28;20425;-76
2021/07/03 07:09:16;;;;;;;31.90;22.02;;;;;;;14.98;100.00;101428.56;6248499;28;20663;-76
2021/07/03 07:12:19;;;;;;;33.65;23.88;;;;;;;15.04;100.00;101430.03;6248769;28;20042;-77
2021/07/03 07:15:21;;;;;;;35.00;21.90;;;;;;;15.12;100.00;101428.59;6248499;28;20512;-76
2021/07/03 07:18:22;;;;;;;32.25;21.13;;;;;;;15.15;100.00;101430.19;6248528;28;20184;-75
2021/07/03 07:21:24;;;;;;;25.02;19.08;;;;;;;15.17;100.00;101433.59;6248495;28;20053;-76
2021/07/03 07:24:25;;;;;;;29.65;19.35;;;;;;;15.23;100.00;101427.94;6248319;28;20045;-77
2021/07/03 07:27:28;;;;;;;30.02;19.10;;;;;;;15.31;100.00;101424.81;6248023;28;20436;-76
2021/07/03 07:30:29;;;;;;;35.88;17.77;;;;;;;15.42;100.00;101425.00;6247735;28;20050;-76
2021/07/03 07:33:30;;;;;;;23.88;17.25;;;;;;;15.49;100.00;101431.63;6248356;28;20045;-75
2021/07/03 07:36:32;;;;;;;31.35;16.92;;;;;;;15.66;100.00;101435.84;6248378;28;20049;-76
2021/07/03 07:39:33;;;;;;;31.55;14.25;;;;;;;15.82;100.00;101436.59;6249077;28;20043;-76
2021/07/03 07:42:36;;;;;;;19.13;11.02;;;;;;;15.91;100.00;101433.34;6255310;28;20049;-75
2021/07/03 07:45:37;;;;;;;23.98;13.35;;;;;;;15.92;100.00;101428.91;6253035;28;20467;-75
2021/07/03 07:48:40;;;;;;;26.02;13.40;;;;;;;15.85;100.00;101436.41;6257791;28;20052;-74
2021/07/03 07:51:42;;;;;;;17.13;8.77;;;;;;;16.26;100.00;101437.28;6244675;28;20124;-75
2021/07/03 07:54:43;;;;;;;16.50;7.10;;;;;;;16.28;100.00;101440.69;6250977;28;20044;-75
2021/07/03 07:57:46;;;;;;;20.85;11.35;;;;;;;16.46;100.00;101440.31;6263147;28;20045;-75
2021/07/03 08:00:48;;;;;;;23.90;13.10;;;;;;;16.42;100.00;101425.56;6272480;28;20049;-80
2021/07/03 08:03:49;;;;;;;25.65;15.75;;;;;;;16.50;100.00;101430.34;6254127;28;20054;-72
2021/07/03 08:06:50;;;;;;;20.10;12.00;;;;;;;16.55;100.00;101430.91;6247085;28;20428;-73
2021/07/03 08:09:52;;;;;;;23.17;13.40;;;;;;;16.59;100.00;101432.38;6246940;28;20390;-73
2021/07/03 08:12:55;;;;;;;19.17;10.82;;;;;;;16.66;100.00;101423.03;6246967;28;20060;-75
2021/07/03 08:15:56;;;;;;;21.80;12.63;;;;;;;16.98;100.00;101422.66;6247035;28;20428;-74
2021/07/03 08:18:58;;;;;;;21.40;12.00;;;;;;;17.10;100.00;101424.47;6246887;28;20046;-75
2021/07/03 08:22:00;;;;;;;23.92;13.20;;;;;;;17.24;100.00;101421.69;6247000;28;20046;-75
2021/07/03 08:25:01;;;;;;;25.00;11.55;;;;;;;17.04;100.00;101410.78;6247093;28;20064;-75
2021/07/03 08:28:04;;;;;;;21.85;12.73;;;;;;;17.26;100.00;101421.59;6245530;28;20053;-75
2021/07/03 08:31:06;;;;;;;20.40;11.48;;;;;;;17.17;100.00;101416.94;6246634;28;20056;-76
2021/07/03 08:34:07;;;;;;;31.00;14.75;;;;;;;17.07;100.00;101418.53;6246533;28;20060;-75
2021/07/03 08:37:08;;;;;;;28.00;15.55;;;;;;;17.19;100.00;101405.25;6250796;28;20048;-75
2021/07/03 08:40:11;;;;;;;26.55;14.55;;;;;;;17.17;100.00;101409.81;6254939;28;20056;-75
2021/07/03 08:43:14;;;;;;;24.27;13.63;;;;;;;17.35;100.00;101399.69;6263061;28;20049;-75
2021/07/03 08:46:18;;;;;;;23.60;13.38;;;;;;;17.43;100.00;101407.09;6261952;28;20061;-75
2021/07/03 08:49:19;;;;;;;20.90;13.48;;;;;;;17.81;96.66;101399.06;6271119;28;20071;-75
2021/07/03 08:52:21;;;;;;;17.95;11.63;;;;;;;17.63;100.00;101395.91;6260793;28;20049;-75
2021/07/03 08:55:25;;;;;;;28.05;15.32;;;;;;;17.64;99.14;101391.44;6271184;28;20496;-75
2021/07/03 08:58:27;;;;;;;27.17;16.58;;;;;;;17.65;99.94;101393.97;6270814;28;20053;-76
2021/07/03 09:01:29;;;;;;;26.10;14.38;;;;;;;17.62;100.00;101396.00;6271313;28;20048;-75
2021/07/03 09:04:34;;;;;;;27.30;15.70;;;;;;;17.73;100.00;101394.28;6271185;28;20053;-75
2021/07/03 09:07:36;;;;;;;31.85;15.50;;;;;;;18.13;100.00;101394.00;6271245;28;20053;-75
2021/07/03 09:10:39;;;;;;;30.42;15.15;;;;;;;18.06;100.00;101390.09;6275604;28;20049;-75
2021/07/03 09:13:44;;;;;;;22.77;13.45;;;;;;;18.07;95.90;101382.97;6267860;28;20048;-75
2021/07/03 09:16:46;;;;;;;31.52;15.00;;;;;;;18.09;97.35;101384.56;6251238;28;20054;-75
2021/07/03 09:19:51;;;;;;;26.52;13.40;;;;;;;18.33;95.54;101381.84;6251264;28;20443;-75
2021/07/03 09:22:58;;;;;;;22.63;12.65;;;;;;;18.28;95.93;101370.72;6251312;28;20191;-75
2021/07/03 09:26:01;;;;;;;20.85;12.13;;;;;;;18.24;95.16;101370.09;6251115;28;20076;-75
2021/07/03 09:29:11;;;;;;;19.52;12.50;;;;;;;18.54;94.39;101368.75;6250829;28;20041;-73
2021/07/03 09:32:12;;;;;;;30.05;12.85;;;;;;;18.73;94.34;101366.38;6250979;28;20045;-74
2021/07/03 09:35:15;;;;;;;21.42;12.40;;;;;;;18.63;97.79;101367.19;6250960;28;20053;-74
2021/07/03 09:38:16;;;;;;;24.48;12.27;;;;;;;18.44;94.52;101373.91;6250704;28;20045;-77
2021/07/03 09:41:19;;;;;;;25.35;12.75;;;;;;;18.41;93.14;101365.31;6250657;28;20507;-75
2021/07/03 09:44:22;;;;;;;22.15;12.48;;;;;;;18.21;97.84;101372.13;6250985;28;20409;-74
2021/07/03 09:47:23;;;;;;;23.58;11.98;;;;;;;18.18;99.07;101362.59;6250508;28;20049;-75
2021/07/03 09:50:24;;;;;;;17.98;10.70;;;;;;;18.57;89.40;101363.16;6250539;28;20064;-75
2021/07/03 09:53:26;;;;;;;15.68;9.82;;;;;;;18.64;94.84;101364.38;6250532;28;20045;-75
2021/07/03 09:56:28;;;;;;;22.83;10.40;;;;;;;18.92;92.24;101367.59;6250458;28;20053;-74
2021/07/03 09:59:32;;;;;;;19.35;10.25;;;;;;;19.08;88.00;101354.78;6250254;28;20045;-74
2021/07/03 10:02:34;;;;;;;17.70;10.10;;;;;;;19.08;86.14;101359.25;6250259;28;20049;-75
2021/07/03 10:05:40;;;;;;;16.63;8.85;;;;;;;18.98;86.44;101357.28;6250431;28;20053;-74
2021/07/03 10:08:45;;;;;;;18.10;8.93;;;;;;;18.84;88.27;101349.53;6249907;28;20056;-74
2021/07/03 10:11:49;;;;;;;14.20;8.80;;;;;;;18.87;90.53;101348.47;6249931;28;20413;-75
2021/07/03 10:14:52;;;;;;;19.38;9.68;;;;;;;19.12;87.46;101340.25;6249944;28;20425;-75
2021/07/03 10:17:53;;;;;;;19.92;10.90;;;;;;;19.08;88.42;101343.28;6250022;28;20504;-75
2021/07/03 10:21:08;;;;;;;17.88;8.63;;;;;;;19.47;86.30;101344.53;6249278;28;20050;-75
2021/07/03 10:24:17;;;;;;;25.58;8.75;;;;;;;19.45;82.47;101342.00;6277634;22;20044;-70
2021/07/03 10:27:21;;;;;;;13.48;8.40;;;;;;;19.49;82.28;101337.25;6274387;28;20492;-70
2021/07/03 10:30:26;;;;;;;12.05;7.53;;;;;;;19.36;82.10;101340.06;6252940;28;20424;-70
2021/07/03 10:33:28;;;;;;;15.43;7.45;;;;;;;19.31;83.48;101336.09;6260710;28;20048;-70
2021/07/03 10:36:30;;;;;;;12.65;7.30;;;;;;;19.41;82.08;101340.53;6274255;28;20053;-74
2021/07/03 10:39:33;;;;;;;13.40;6.32;;;;;;;19.15;85.27;101339.13;6274003;28;20045;-70
2021/07/03 10:42:34;;;;;;;10.88;7.68;;;;;;;19.16;83.63;101340.81;6274012;28;20447;-70
2021/07/03 10:45:46;;;;;;;11.32;7.20;;;;;;;19.25;83.36;101334.75;6272996;28;20060;-70
2021/07/03 10:48:55;;;;;;;12.20;7.28;;;;;;;19.57;80.93;101323.28;6273702;28;20057;-70
2021/07/03 10:51:56;;;;;;;15.18;7.38;;;;;;;19.77;82.02;101323.38;6274153;28;20052;-70
2021/07/03 10:55:02;;;;;;;12.65;6.70;;;;;;;19.63;80.63;101321.00;6272944;28;20055;-71
2021/07/03 10:58:14;;;;;;;10.40;6.60;;;;;;;19.97;76.00;101319.03;6274049;28;20050;-70
2021/07/03 11:01:17;;;;;;;10.65;6.63;;;;;;;19.89;79.62;101320.66;6273742;28;20500;-70
2021/07/03 11:04:20;;;;;;;11.00;7.00;;;;;;;19.97;79.28;101307.53;6273586;28;20060;-73
2021/07/03 11:07:25;;;;;;;14.18;6.05;;;;;;;20.20;77.47;101308.25;6236180;28;20050;-73
2021/07/03 11:10:28;;;;;;;13.85;6.30;;;;;;;20.35;78.94;101314.09;6238583;28;20060;-73
2021/07/03 11:13:29;;;;;;;14.05;6.85;;;;;;;20.72;73.17;101306.47;6243840;28;20123;-72
2021/07/03 11:16:32;;;;;;;10.85;6.00;;;;;;;20.86;76.96;101307.94;6240783;28;20049;-72
2021/07/03 11:19:33;;;;;;;8.32;5.60;;;;;;;20.48;77.56;101306.75;6248052;28;20056;-72
2021/07/03 11:22:42;;;;;;;10.25;6.35;;;;;;;20.25;80.28;101309.53;6248119;28;20056;-72
2021/07/03 11:25:44;;;;;;;;;;;;;;;20.09;79.15;101301.16;6248409;28;20056;-70
2021/07/03 11:28:50;;;;;;;11.43;6.15;;;;;;;19.94;82.20;101302.44;6247769;28;19992;-72
2021/07/03 11:32:03;;;;;;;13.20;5.88;;;;;;;20.37;80.49;101302.31;6247145;28;20049;-72
2021/07/03 11:35:06;;;;;;;9.57;6.00;;;;;;;20.60;80.11;101294.19;6247977;28;20045;-72
2021/07/03 11:38:07;;;;;;;14.18;6.40;;;;;;;20.87;73.79;101286.41;6247963;28;20049;-73
2021/07/03 11:41:09;;;;;;;10.20;5.90;;;;;;;20.73;75.85;101290.31;6247687;28;20053;-73
2021/07/03 11:44:10;;;;;;;9.07;5.30;;;;;;;20.45;78.29;101283.81;6248028;28;20056;-73
2021/07/03 11:47:13;;;;;;;9.75;6.25;;;;;;;20.18;82.80;101281.69;6247489;28;20505;-72
2021/07/03 11:50:16;;;;;;;9.95;5.85;;;;;;;20.34;78.87;101283.88;6247171;28;20046;-72
2021/07/03 11:53:19;;;;;;;9.30;5.15;;;;;;;20.52;77.32;101268.13;6247524;28;20048;-72
2021/07/03 11:56:22;;;;;;;14.45;6.03;;;;;;;21.40;72.93;101271.97;6247762;28;20052;-73
2021/07/03 11:59:24;;;;;;;10.82;5.53;;;;;;;22.32;70.19;101264.28;6247386;28;20095;-70
2021/07/03 12:02:27;;;;;;;11.07;5.13;;;;;;;22.25;70.85;101265.84;6246715;28;20041;-71
2021/07/03 12:05:30;;;;;;;8.25;4.85;;;;;;;21.96;67.99;101263.22;6247469;28;20068;-72
2021/07/03 12:08:33;;;;;;;7.75;4.85;;;;;;;21.97;68.75;101257.69;6247066;28;20049;-72
2021/07/03 12:11:35;;;;;;;13.90;4.47;;;;;;;22.48;64.49;101256.50;6247421;28;20046;-71
2021/07/03 12:14:36;;;;;;;8.20;4.90;;;;;;;22.75;64.84;101242.25;6247112;28;20517;-72
2021/07/03 12:17:47;;;;;;;8.15;4.88;;;;;;;22.36;66.28;101244.25;6247320;28;20053;-71
2021/07/03 12:20:49;;;;;;;17.10;5.07;;;;;;;23.20;62.87;101235.25;6246850;28;20497;-70
2021/07/03 12:23:53;;;;;;;11.85;5.57;;;;;;;23.38;67.80;101233.41;6246988;28;20049;-70
2021/07/03 12:26:54;;;;;;;11.23;5.68;;;;;;;23.47;63.59;101223.59;6247071;28;20060;-71
2021/07/03 12:30:04;;;;;;;8.85;4.57;;;;;;;23.42;65.63;101228.59;6246438;28;20053;-70
2021/07/03 12:33:09;;;;;;;8.95;4.22;;;;;;;24.11;66.42;101233.19;6243820;28;20056;-70
2021/07/03 12:36:18;;;;;;;8.73;4.88;;;;;;;24.28;61.51;101218.84;6246862;28;20053;-70
2021/07/03 12:39:21;;;;;;;10.10;5.07;;;;;;;24.36;60.65;101218.06;6246590;28;20124;-70
2021/07/03 12:42:25;;;;;;;11.90;5.25;;;;;;;24.48;58.28;101216.81;6246903;28;20045;-70
2021/07/03 12:45:27;;;;;;;6.43;4.10;;;;;;;24.56;58.80;101221.38;6246586;28;20511;-71
2021/07/03 12:48:37;;;;;;;8.75;4.43;;;;;;;24.19;59.08;101213.59;6246563;28;20533;-70
2021/07/03 12:51:40;;;;;;;6.20;4.38;;;;;;;23.73;61.40;101216.47;6246756;28;20069;-70
2021/07/03 12:54:43;;;;;;;9.63;4.72;;;;;;;23.18;61.39;101216.63;6246538;28;20047;-70
2021/07/03 12:57:48;;;;;;;11.20;5.07;;;;;;;22.63;62.61;101215.81;6246548;28;20054;-71
2021/07/03 13:00:50;;;;;;;11.43;5.03;;;;;;;22.24;65.02;101208.78;6246453;28;20057;-70
2021/07/03 13:03:52;;;;;;;15.82;5.25;;;;;;;22.54;68.54;101206.84;6246443;28;20057;-70
2021/07/03 13:06:54;;;;;;;7.97;4.78;;;;;;;22.96;63.92;101206.34;6246349;28;20057;-70
2021/07/03 13:09:55;;;;;;;12.82;4.53;;;;;;;23.44;62.56;101200.63;6246305;28;20049;-70
2021/07/03 13:12:59;;;;;;;8.90;4.78;;;;;;;23.94;60.31;101204.56;6246277;28;20057;-70
2021/07/03 13:16:00;;;;;;;19.90;4.78;;;;;;;23.80;59.00;101197.94;6246338;28;20049;-70
2021/07/03 13:19:02;;;;;;;6.05;4.00;;;;;;;23.64;59.74;101201.31;6245989;28;20053;-70
2021/07/03 13:22:04;;;;;;;12.98;5.15;;;;;;;22.77;62.46;101196.56;6246323;28;20054;-71
2021/07/03 13:25:07;;;;;;;10.15;5.13;;;;;;;22.35;64.34;101198.91;6245950;28;20046;-71
2021/07/03 13:28:10;;;;;;;8.50;4.50;;;;;;;22.50;64.59;101179.50;6246247;28;20412;-71
2021/07/03 13:31:12;;;;;;;11.73;4.82;;;;;;;23.05;60.11;101178.63;6245937;28;20127;-71
2021/07/03 13:34:15;;;;;;;8.30;4.53;;;;;;;23.17;60.98;101181.94;6246158;28;20053;-71
2021/07/03 13:37:16;;;;;;;10.05;4.82;;;;;;;23.15;61.84;101182.06;6246012;28;20456;-71
2021/07/03 13:40:18;;;;;;;7.88;4.40;;;;;;;23.54;58.30;101182.59;6245809;28;20058;-71
2021/07/03 13:43:19;;;;;;;13.68;4.80;;;;;;;23.72;60.40;101179.91;6246328;28;20125;-71
2021/07/03 13:46:21;;;;;;;7.80;4.45;;;;;;;23.99;58.60;101164.66;6245999;28;20451;-73